createdAt,value
2019-05-01T02:42:02.313Z,0.1
2019-05-01T02:44:01.164Z,0.2
2019-05-01T02:45:01.087Z,0.3
2019-05-01T02:47:01.265Z,0.4
2019-05-01T02:48:01.088Z,0.5
2019-05-01T02:50:01.088Z,0.6
2019-05-01T02:51:01.091Z,0.7
2019-05-01T02:52:01.266Z,0.8
2019-05-01T02:53:01.093Z,0.9
2019-05-01T02:54:01.096Z,1.1
2019-05-01T02:55:01.098Z,1.2
2019-05-01T02:56:01.091Z,1.3
2019-05-01T02:57:01.308Z,1.5
2019-05-01T02:58:01.090Z,1.6
2019-05-01T02:59:01.095Z,1.7
2019-05-01T03:00:01.101Z,1.9
2019-05-01T03:01:01.092Z,2.1
2019-05-01T03:02:01.292Z,2.4
2019-05-01T03:03:01.097Z,2.7
2019-05-01T03:04:01.091Z,3.1
2019-05-01T03:05:01.096Z,3.5
2019-05-01T03:06:01.092Z,3.9
2019-05-01T03:07:01.283Z,4.4
2019-05-01T03:08:01.126Z,4.9
2019-05-01T03:09:01.099Z,5.6
2019-05-01T03:10:02.049Z,6.3
2019-05-01T03:11:01.098Z,7.2
2019-05-01T03:12:01.275Z,8.1
2019-05-01T03:13:01.095Z,9.4
2019-05-01T03:14:01.099Z,10.7
2019-05-01T03:15:01.094Z,12.2
2019-05-01T03:16:01.100Z,13.9
2019-05-01T03:17:01.322Z,15.9
2019-05-01T03:18:01.103Z,18.1
2019-05-01T03:19:01.102Z,20.6
2019-05-01T03:20:01.095Z,23.5
2019-05-01T03:21:01.102Z,27.0
2019-05-01T03:22:01.339Z,31.3
2019-05-01T03:23:01.096Z,36.6
2019-05-01T03:24:01.108Z,42.9
2019-05-01T03:25:01.099Z,49.8
2019-05-01T03:26:01.103Z,56.9
2019-05-01T03:27:01.252Z,65.7
2019-05-01T03:28:01.096Z,74.9
2019-05-01T03:29:01.107Z,85.0
2019-05-01T03:30:01.123Z,97.0
2019-05-01T03:31:01.449Z,109.9
2019-05-01T03:32:16.415Z,123.9
2019-05-01T03:33:01.073Z,137.7
2019-05-01T03:34:01.099Z,152.3
2019-05-01T03:35:01.112Z,168.5
2019-05-01T03:36:01.097Z,186.5
2019-05-01T03:37:01.339Z,206.2
2019-05-01T03:38:01.121Z,225.3
2019-05-01T03:39:01.098Z,247.3
2019-05-01T03:40:01.105Z,269.9
2019-05-01T03:41:01.109Z,293.5
2019-05-01T03:42:01.282Z,319.7
2019-05-01T03:43:01.105Z,345.7
2019-05-01T03:44:01.099Z,373.3
2019-05-01T03:45:01.103Z,404.2
2019-05-01T03:46:01.069Z,434.5
2019-05-01T03:47:01.379Z,467.5
2019-05-01T03:48:01.108Z,502.5
2019-05-01T03:49:01.101Z,541.7
2019-05-01T03:50:01.127Z,582.2
2019-05-01T03:51:01.106Z,621.1
2019-05-01T03:52:01.279Z,665.6
2019-05-01T03:54:01.155Z,717.6
2019-05-01T03:55:01.092Z,776.1
2019-05-01T03:56:01.057Z,836.3
2019-05-01T03:57:01.090Z,904.7
2019-05-01T03:58:01.249Z,981.6
2019-05-01T03:59:01.088Z,1062.9
2019-05-01T04:00:01.090Z,1153.7
2019-05-01T04:01:01.088Z,1235.9
2019-05-01T04:02:01.089Z,1316.5
2019-05-01T04:03:01.264Z,1410.7
2019-05-01T04:04:01.092Z,1516.4
2019-05-01T04:05:01.095Z,1622.5
2019-05-01T04:06:01.113Z,1728.1
2019-05-01T04:07:01.091Z,1842.1
2019-05-01T04:08:01.243Z,1962.5
2019-05-01T04:09:01.093Z,2089.7
2019-05-01T04:10:01.130Z,2220.6
2019-05-01T04:11:01.116Z,2355.9
2019-05-01T04:12:01.128Z,2495.3
2019-05-01T04:13:01.262Z,2640.6
2019-05-01T04:14:01.098Z,2795.5
2019-05-01T04:15:01.093Z,2950.1
2019-05-01T04:16:01.122Z,3112.3
2019-05-01T04:17:01.092Z,3293.3
2019-05-01T04:18:01.246Z,3474.1
2019-05-01T04:19:01.095Z,3650.2
2019-05-01T04:20:01.093Z,3854.9
2019-05-01T04:21:01.095Z,4046.9
2019-05-01T04:22:01.069Z,4256.1
2019-05-01T04:23:01.237Z,4463.3
2019-05-01T04:24:01.099Z,4649.9
2019-05-01T04:25:01.110Z,4802.3
2019-05-01T04:26:03.074Z,4965.5
2019-05-01T04:27:06.101Z,5100.3
2019-05-01T04:28:01.323Z,5234.8
2019-05-01T04:29:01.107Z,5374.1
2019-05-01T04:30:01.114Z,5519.9
2019-05-01T04:31:01.101Z,5670.5
2019-05-01T04:32:01.119Z,5806.4
2019-05-01T04:33:02.082Z,5953.5
2019-05-01T04:34:01.094Z,6109.5
2019-05-01T04:35:01.095Z,6237.8
2019-05-01T04:36:06.103Z,6388.5
2019-05-01T04:37:01.069Z,6469.9
2019-05-01T04:38:01.244Z,6572.6
2019-05-01T04:39:01.110Z,6810.4
2019-05-01T04:40:01.100Z,7073.5
2019-05-01T04:41:01.133Z,7262.6
2019-05-01T04:42:01.102Z,7474.7
2019-05-01T04:43:01.252Z,7678.1
2019-05-01T04:44:01.105Z,7866.4
2019-05-01T04:45:01.112Z,8104.7
2019-05-01T04:46:01.119Z,8321.0
2019-05-01T04:47:01.095Z,8562.3
2019-05-01T04:48:01.246Z,8763.5
2019-05-01T04:49:01.128Z,8969.5
2019-05-01T04:50:06.106Z,9126.6
2019-05-01T04:51:01.100Z,9269.0
2019-05-01T04:52:01.076Z,9454.7
2019-05-01T04:53:01.249Z,9637.3
2019-05-01T04:54:01.099Z,9681.4
2019-05-01T04:55:01.144Z,9736.1
2019-05-01T04:56:01.101Z,9835.3
2019-05-01T04:57:01.097Z,9958.4
2019-05-01T04:58:01.312Z,10106.7
2019-05-01T04:59:01.102Z,10241.3
2019-05-01T05:00:06.108Z,10308.4
2019-05-01T05:01:01.102Z,10406.4
2019-05-01T05:02:01.104Z,10494.3
2019-05-01T05:03:04.700Z,10579.6
2019-05-01T05:04:01.101Z,10727.1
2019-05-01T05:05:01.127Z,11011.9
2019-05-01T05:06:01.105Z,11355.3
2019-05-01T05:07:06.103Z,11674.1
2019-05-01T05:08:01.261Z,11992.7
2019-05-01T05:09:01.104Z,12317.5
2019-05-01T05:11:01.150Z,12607.1
2019-05-01T05:12:01.111Z,12877.2
2019-05-01T05:13:01.262Z,13126.1
2019-05-01T05:14:01.089Z,13311.9
2019-05-01T05:15:01.090Z,13511.7
2019-05-01T05:16:01.126Z,13708.7
2019-05-01T05:17:01.111Z,13921.2
2019-05-01T05:18:01.237Z,14107.4
2019-05-01T05:19:01.090Z,14358.9
2019-05-01T05:20:01.088Z,14577.7
2019-05-01T05:21:01.092Z,14724.5
2019-05-01T05:22:01.113Z,14896.5
2019-05-01T05:23:01.302Z,14994.9
2019-05-01T05:24:01.090Z,15038.2
2019-05-01T05:25:01.415Z,15060.5
2019-05-01T05:26:01.091Z,15384.6
2019-05-01T05:27:01.118Z,15565.3
2019-05-01T05:28:01.236Z,15680.8
2019-05-01T05:29:01.096Z,15844.3
2019-05-01T05:30:01.094Z,16061.3
2019-05-01T05:31:01.091Z,16269.7
2019-05-01T05:32:01.118Z,16398.9
2019-05-01T05:33:01.241Z,16707.9
2019-05-01T05:34:01.094Z,16983.2
2019-05-01T05:35:01.061Z,17217.9
2019-05-01T05:36:01.093Z,17400.9
2019-05-01T05:37:01.118Z,17449.7
2019-05-01T05:38:01.245Z,17547.1
2019-05-01T05:39:01.094Z,17666.5
2019-05-01T05:40:01.104Z,17810.9
2019-05-01T05:41:01.098Z,17708.6
2019-05-01T05:42:01.121Z,17811.1
2019-05-01T05:43:01.254Z,17931.3
2019-05-01T05:44:01.096Z,18088.2
2019-05-01T05:45:01.104Z,18200.3
2019-05-01T05:46:01.097Z,18299.5
2019-05-01T05:47:01.130Z,18475.6
2019-05-01T05:48:01.244Z,18533.5
2019-05-01T05:49:01.095Z,18563.1
2019-05-01T05:50:01.095Z,18527.7
2019-05-01T05:51:01.095Z,18476.4
2019-05-01T05:52:01.126Z,18521.5
2019-05-01T05:53:01.314Z,18635.3
2019-05-01T05:54:01.121Z,18744.1
2019-05-01T05:55:01.102Z,18782.1
2019-05-01T05:56:01.929Z,19057.7
2019-05-01T05:57:01.103Z,19409.1
2019-05-01T05:58:01.313Z,19883.1
2019-05-01T05:59:06.104Z,20275.9
2019-05-01T06:00:01.109Z,20697.9
2019-05-01T06:01:01.106Z,21173.6
2019-05-01T06:02:01.105Z,21598.1
2019-05-01T06:03:01.272Z,21941.3
2019-05-01T06:04:06.103Z,22222.7
2019-05-01T06:05:01.105Z,22518.8
2019-05-01T06:06:01.101Z,22827.1
2019-05-01T06:07:01.105Z,23160.3
2019-05-01T06:08:02.150Z,23566.2
2019-05-01T06:09:01.135Z,23918.8
2019-05-01T06:10:01.115Z,24392.9
2019-05-01T06:11:01.079Z,24424.2
2019-05-01T06:12:04.802Z,24479.7
2019-05-01T06:13:01.413Z,24386.0
2019-05-01T06:14:06.113Z,24350.5
2019-05-01T06:15:02.257Z,24359.4
2019-05-01T06:16:01.108Z,24334.7
2019-05-01T06:17:01.116Z,24491.8
2019-05-01T06:18:04.013Z,24737.0
2019-05-01T06:19:09.623Z,25093.1
2019-05-01T06:20:01.106Z,25529.9
2019-05-01T06:22:04.835Z,25909.0
2019-05-01T06:23:01.234Z,26172.3
2019-05-01T06:24:06.439Z,26391.1
2019-05-01T06:25:01.086Z,26902.5
2019-05-01T06:26:02.515Z,27365.9
2019-05-01T06:27:01.088Z,28037.0
2019-05-01T06:28:01.231Z,28571.6
2019-05-01T06:29:02.090Z,29014.7
2019-05-01T06:30:01.086Z,29323.8
2019-05-01T06:31:01.087Z,29428.1
2019-05-01T06:32:01.087Z,29501.3
2019-05-01T06:33:04.013Z,29421.1
2019-05-01T06:34:01.112Z,29224.1
2019-05-01T06:35:02.967Z,28990.7
2019-05-01T06:36:01.091Z,28729.9
2019-05-01T06:37:01.091Z,28583.2
2019-05-01T06:38:02.241Z,28492.3
2019-05-01T06:39:01.110Z,28363.5
2019-05-01T06:40:01.090Z,28021.3
2019-05-01T06:41:01.089Z,27615.1
2019-05-01T06:42:01.093Z,27278.1
2019-05-01T06:43:01.267Z,27172.9
2019-05-01T06:44:02.081Z,27280.5
2019-05-01T06:45:01.093Z,27587.3
2019-05-01T06:46:01.094Z,27932.5
2019-05-01T06:47:03.147Z,28349.5
2019-05-01T06:48:01.272Z,28915.2
2019-05-01T06:49:01.096Z,29571.7
2019-05-01T06:50:05.757Z,30272.9
2019-05-01T06:51:01.097Z,30984.3
2019-05-01T06:52:01.095Z,31683.1
2019-05-01T06:53:04.516Z,32275.4
2019-05-01T06:54:01.097Z,32887.5
2019-05-01T06:55:01.097Z,33420.9
2019-05-01T06:56:01.097Z,34033.7
2019-05-01T06:57:01.097Z,34504.9
2019-05-01T06:58:01.274Z,34772.3
2019-05-01T06:59:01.619Z,35012.8
2019-05-01T07:00:03.107Z,35068.5
2019-05-01T07:01:01.097Z,35307.3
2019-05-01T07:02:01.102Z,35628.1
2019-05-01T07:03:01.303Z,35751.9
2019-05-01T07:04:04.185Z,35878.5
2019-05-01T07:05:01.102Z,36081.3
2019-05-01T07:06:13.287Z,36277.1
2019-05-01T07:07:01.885Z,36520.9
2019-05-01T07:08:01.274Z,36838.2
2019-05-01T07:10:01.121Z,36969.7
2019-05-01T07:11:01.086Z,37200.3
2019-05-01T07:12:01.085Z,37280.1
2019-05-01T07:13:04.779Z,37509.1
2019-05-01T07:14:01.300Z,37701.3
2019-05-01T07:15:01.094Z,37903.3
2019-05-01T07:16:03.236Z,38247.5
2019-05-01T07:17:01.096Z,38604.7
2019-05-01T07:18:01.088Z,39012.5
2019-05-01T07:19:05.709Z,39330.1
2019-05-01T07:20:01.105Z,39704.8
2019-05-01T07:21:01.121Z,40013.3
2019-05-01T07:22:01.748Z,40171.9
2019-05-01T07:23:01.094Z,40334.4
2019-05-01T07:24:01.245Z,40414.2
2019-05-01T07:25:03.880Z,40756.8
2019-05-01T07:26:01.113Z,41092.7
2019-05-01T07:27:01.094Z,41624.6
2019-05-01T07:28:01.092Z,41953.3
2019-05-01T07:29:01.301Z,42410.2
2019-05-01T07:30:01.092Z,42968.7
2019-05-01T07:31:06.097Z,43426.8
2019-05-01T07:32:01.594Z,43776.4
2019-05-01T07:33:01.101Z,43928.8
2019-05-01T07:34:01.241Z,44192.5
2019-05-01T07:35:01.880Z,44498.4
2019-05-01T07:36:01.139Z,44819.7
2019-05-01T07:37:01.098Z,45377.5
2019-05-01T07:38:02.179Z,45987.9
2019-05-01T07:39:01.307Z,47183.7
2019-05-01T07:40:01.094Z,48316.9
2019-05-01T07:41:03.245Z,49600.9
2019-05-01T07:42:01.095Z,50918.1
2019-05-01T07:43:01.096Z,51698.7
2019-05-01T07:44:01.305Z,52306.7
2019-05-01T07:45:03.754Z,52725.3
2019-05-01T07:46:02.313Z,53251.9
2019-05-01T07:47:01.161Z,53732.8
2019-05-01T07:48:05.534Z,53993.4
2019-05-01T07:49:01.306Z,54344.7
2019-05-01T07:50:01.096Z,54479.5
2019-05-01T07:51:01.805Z,54511.6
2019-05-01T07:52:01.782Z,54380.5
2019-05-01T07:53:01.104Z,54072.1
2019-05-01T07:54:03.622Z,53320.3
2019-05-01T07:55:01.100Z,52463.2
2019-05-01T07:56:01.130Z,51538.6
2019-05-01T07:57:03.145Z,50515.4
2019-05-01T07:58:01.098Z,50179.6
2019-05-01T07:59:01.258Z,50794.0
2019-05-01T08:00:03.214Z,51268.7
2019-05-01T08:01:01.128Z,52029.1
2019-05-01T08:02:01.103Z,52631.3
2019-05-01T08:03:02.565Z,53342.8
2019-05-01T08:04:01.271Z,53958.1
2019-05-01T08:05:04.812Z,54655.8
2019-05-01T08:06:01.132Z,55354.5
2019-05-01T08:07:01.099Z,56374.1
2019-05-01T08:08:02.795Z,57579.3
2019-05-01T08:09:01.247Z,58749.5
2019-05-01T08:10:01.101Z,59980.3
2019-05-01T08:11:04.889Z,61096.3
2019-05-01T08:12:01.101Z,62213.0
2019-05-01T08:13:01.963Z,63267.1
2019-05-01T08:14:07.229Z,63430.5
2019-05-01T08:15:01.100Z,63780.1
2019-05-01T08:17:01.102Z,63976.0
2019-05-01T08:18:01.101Z,64310.3
2019-05-01T08:19:03.981Z,64668.9
2019-05-01T08:20:01.103Z,65025.3
2019-05-01T08:21:01.136Z,65411.3
2019-05-01T08:22:01.583Z,65535.0
2019-05-01T08:27:01.413Z,65467.6
2019-05-01T08:28:01.102Z,65401.1
2019-05-01T08:30:01.085Z,65361.7
2019-05-01T08:43:01.370Z,65429.1
2019-05-01T08:44:01.098Z,65495.6
2019-05-01T08:45:04.952Z,65535.0
2019-05-01T09:00:01.648Z,65535.0
2019-05-01T09:14:01.153Z,65533.1
2019-05-01T09:15:01.091Z,65405.3
2019-05-01T09:29:01.314Z,65407.2
2019-05-01T09:30:04.089Z,65427.3
2019-05-01T09:31:01.934Z,65261.7
2019-05-01T09:32:04.944Z,65065.0
2019-05-01T09:33:01.092Z,64977.1
2019-05-01T09:34:01.302Z,64900.8
2019-05-01T09:45:01.317Z,65008.5
2019-05-01T09:46:01.097Z,65174.1
2019-05-01T09:47:01.117Z,65370.8
2019-05-01T09:48:01.095Z,65458.7
2019-05-01T09:49:01.095Z,65535.0
2019-05-01T10:00:01.336Z,65535.0
2019-05-01T10:15:01.091Z,65535.0
2019-05-01T10:30:01.712Z,65535.0
2019-05-01T10:45:01.100Z,65535.0
2019-05-01T11:00:01.112Z,65535.0
2019-05-01T11:15:01.219Z,65535.0
2019-05-01T11:30:01.367Z,65409.5
2019-05-01T11:45:01.104Z,65535.0
2019-05-01T12:00:01.122Z,65535.0
2019-05-01T12:02:02.499Z,65303.0
2019-05-01T12:03:01.104Z,64753.0
2019-05-01T12:04:06.111Z,64443.1
2019-05-01T12:08:01.251Z,64300.8
2019-05-01T12:09:06.137Z,63977.5
2019-05-01T12:10:01.103Z,63838.6
2019-05-01T12:11:02.475Z,63597.3
2019-05-01T12:12:01.102Z,63297.7
2019-05-01T12:13:01.278Z,63285.2
2019-05-01T12:18:01.235Z,63517.2
2019-05-01T12:19:01.121Z,63994.7
2019-05-01T12:20:01.093Z,64304.5
2019-05-01T12:21:01.092Z,64250.2
2019-05-01T12:22:01.090Z,64070.0
2019-05-01T12:23:01.239Z,63675.8
2019-05-01T12:24:01.497Z,63519.7
2019-05-01T12:25:01.120Z,63454.3
2019-05-01T12:26:01.091Z,63178.3
2019-05-01T12:27:01.093Z,62988.1
2019-05-01T12:28:01.238Z,62947.1
2019-05-01T12:29:01.089Z,62673.0
2019-05-01T12:30:01.130Z,62182.3
2019-05-01T12:31:01.091Z,61511.1
2019-05-01T12:32:01.088Z,60719.0
2019-05-01T12:33:01.242Z,60427.4
2019-05-01T12:34:01.092Z,60113.3
2019-05-01T12:35:01.092Z,59955.0
2019-05-01T12:36:01.093Z,59444.0
2019-05-01T12:37:01.866Z,59012.3
2019-05-01T12:38:01.242Z,58584.7
2019-05-01T12:39:01.090Z,58051.1
2019-05-01T12:40:01.158Z,57621.8
2019-05-01T12:41:01.100Z,57233.1
2019-05-01T12:42:01.095Z,56927.5
2019-05-01T12:43:01.303Z,56791.6
2019-05-01T12:44:01.128Z,56706.5
2019-05-01T12:45:01.098Z,57197.2
2019-05-01T12:46:01.096Z,57868.4
2019-05-01T12:47:01.094Z,58660.5
2019-05-01T12:48:01.240Z,58952.1
2019-05-01T12:49:01.128Z,59316.3
2019-05-01T12:50:01.095Z,59474.5
2019-05-01T12:51:01.097Z,59891.8
2019-05-01T12:52:10.083Z,60503.7
2019-05-01T12:53:01.252Z,61240.0
2019-05-01T12:54:06.107Z,61897.3
2019-05-01T12:55:01.100Z,62395.8
2019-05-01T12:56:01.100Z,62830.3
2019-05-01T12:57:06.109Z,63153.2
2019-05-01T12:58:01.246Z,63329.1
2019-05-01T12:59:01.125Z,63336.9
2019-05-01T13:00:08.329Z,62661.0
2019-05-01T13:01:01.099Z,62011.6
2019-05-01T13:02:01.127Z,61406.5
2019-05-01T13:03:01.362Z,60385.8
2019-05-01T13:04:01.104Z,59464.5
2019-05-01T13:05:01.105Z,58601.1
2019-05-01T13:06:01.098Z,58022.5
2019-05-01T13:07:06.100Z,57233.6
2019-05-01T13:08:01.244Z,56635.6
2019-05-01T13:09:01.070Z,56224.5
2019-05-01T13:10:01.108Z,56035.3
2019-05-01T13:11:01.112Z,55702.9
2019-05-01T13:12:01.102Z,55331.7
2019-05-01T13:13:01.281Z,54980.2
2019-05-01T13:14:01.099Z,54827.1
2019-05-01T13:15:01.104Z,55180.3
2019-05-01T13:16:01.099Z,55627.5
2019-05-01T13:17:01.069Z,56232.5
2019-05-01T13:18:01.246Z,57253.3
2019-05-01T13:19:06.108Z,58197.0
2019-05-01T13:20:01.109Z,59060.4
2019-05-01T13:21:01.108Z,59787.1
2019-05-01T13:22:01.099Z,60576.0
2019-05-01T13:23:01.246Z,61259.5
2019-05-01T13:24:01.133Z,61845.3
2019-05-01T13:25:01.113Z,62353.9
2019-05-01T13:26:01.103Z,63055.5
2019-05-01T13:27:01.103Z,63841.0
2019-05-01T13:28:01.255Z,64493.0
2019-05-01T13:29:01.133Z,64901.0
2019-05-01T13:30:01.107Z,64966.7
2019-05-01T13:31:01.105Z,64817.7
2019-05-01T13:32:01.101Z,64469.3
2019-05-01T13:37:02.987Z,64432.7
2019-05-01T13:41:01.097Z,63858.3
2019-05-01T13:42:01.230Z,63512.2
2019-05-01T13:43:01.090Z,63138.8
2019-05-01T13:44:01.133Z,62955.8
2019-05-01T13:45:01.090Z,62296.3
2019-05-01T13:46:01.089Z,61572.3
2019-05-01T13:47:01.241Z,61147.3
2019-05-01T13:48:01.090Z,60828.1
2019-05-01T13:49:01.087Z,60461.3
2019-05-01T13:50:01.112Z,60333.2
2019-05-01T13:51:01.085Z,60091.2
2019-05-01T13:52:01.231Z,60127.7
2019-05-01T13:53:01.093Z,59937.7
2019-05-01T13:54:01.092Z,59634.7
2019-05-01T13:55:06.094Z,59304.1
2019-05-01T13:56:02.123Z,59050.5
2019-05-01T13:57:01.236Z,58562.9
2019-05-01T13:58:01.582Z,58276.5
2019-05-01T13:59:01.089Z,57957.6
2019-05-01T14:00:01.135Z,58119.1
2019-05-01T14:01:01.089Z,58830.5
2019-05-01T14:02:01.233Z,59606.7
2019-05-01T14:03:01.090Z,60274.4
2019-05-01T14:04:01.091Z,60641.2
2019-05-01T14:05:01.102Z,60352.3
2019-05-01T14:06:01.090Z,60070.0
2019-05-01T14:07:01.260Z,59627.7
2019-05-01T14:08:01.096Z,59673.5
2019-05-01T14:09:01.094Z,59209.7
2019-05-01T14:10:01.127Z,58757.6
2019-05-01T14:11:01.096Z,58492.5
2019-05-01T14:12:01.337Z,58345.2
2019-05-01T14:13:01.098Z,57909.5
2019-05-01T14:14:01.092Z,57403.1
2019-05-01T14:15:01.097Z,57218.3
2019-05-01T14:16:01.094Z,57085.0
2019-05-01T14:17:01.289Z,56660.3
2019-05-01T14:18:01.092Z,56041.3
2019-05-01T14:19:01.099Z,55131.3
2019-05-01T14:20:02.091Z,54459.1
2019-05-01T14:21:01.097Z,53853.8
2019-05-01T14:22:01.243Z,53524.7
2019-05-01T14:23:01.096Z,52669.7
2019-05-01T14:24:01.104Z,52638.5
2019-05-01T14:25:01.103Z,53290.2
2019-05-01T14:26:01.118Z,54326.9
2019-05-01T14:27:01.240Z,55307.9
2019-05-01T14:28:01.096Z,56403.3
2019-05-01T14:29:01.103Z,57411.6
2019-05-01T14:30:01.102Z,58203.4
2019-05-01T14:31:01.119Z,58490.3
2019-05-01T14:32:01.239Z,58915.0
2019-05-01T14:33:01.100Z,59534.1
2019-05-01T14:34:01.097Z,60444.1
2019-05-01T14:35:01.093Z,61309.9
2019-05-01T14:36:06.106Z,62439.5
2019-05-01T14:37:01.244Z,62350.9
2019-05-01T14:38:01.100Z,62167.2
2019-05-01T14:39:01.066Z,61716.2
2019-05-01T14:40:01.098Z,61025.1
2019-05-01T14:41:06.104Z,60367.7
2019-05-01T14:42:01.248Z,59022.1
2019-05-01T14:43:01.102Z,58213.7
2019-05-01T14:44:01.098Z,57222.3
2019-05-01T14:45:01.102Z,56131.7
2019-05-01T14:46:01.127Z,55082.4
2019-05-01T14:47:01.244Z,54021.9
2019-05-01T14:48:01.110Z,52874.4
2019-05-01T14:49:01.100Z,51982.7
2019-05-01T14:50:01.100Z,51279.3
2019-05-01T14:51:01.143Z,50740.7
2019-05-01T14:52:01.254Z,50826.9
2019-05-01T14:53:01.097Z,51274.7
2019-05-01T14:54:01.101Z,51593.1
2019-05-01T14:55:01.106Z,51042.4
2019-05-01T14:56:01.136Z,50778.1
2019-05-01T14:57:01.248Z,51535.6
2019-05-01T14:58:01.099Z,52344.0
2019-05-01T14:59:01.103Z,53335.5
2019-05-01T15:00:01.103Z,54426.0
2019-05-01T15:01:01.214Z,55591.4
2019-05-01T15:02:01.246Z,56651.9
2019-05-01T15:03:01.099Z,57799.4
2019-05-01T15:04:06.103Z,58691.1
2019-05-01T15:05:01.111Z,59617.7
2019-05-01T15:06:01.110Z,60156.3
2019-05-01T15:08:02.278Z,60930.2
2019-05-01T15:09:01.087Z,61665.3
2019-05-01T15:10:01.116Z,62595.9
2019-05-01T15:11:01.085Z,63968.7
2019-05-01T15:12:01.085Z,64947.0
2019-05-01T15:13:01.231Z,65535.0
2019-05-01T15:15:01.093Z,65535.0
2019-05-01T15:21:01.243Z,65477.5
2019-05-01T15:22:01.108Z,65332.6
2019-05-01T15:23:01.091Z,65180.5
2019-05-01T15:27:01.375Z,64921.2
2019-05-01T15:28:01.099Z,64222.1
2019-05-01T15:29:01.189Z,63306.9
2019-05-01T15:30:01.167Z,62360.8
2019-05-01T15:31:01.975Z,61698.1
2019-05-01T15:32:01.339Z,61284.6
2019-05-01T15:33:01.105Z,60212.0
2019-05-01T15:34:01.103Z,58925.9
2019-05-01T15:35:01.107Z,57970.6
2019-05-01T15:36:06.103Z,57658.5
2019-05-01T15:37:01.310Z,57706.6
2019-05-01T15:38:01.100Z,57694.7
2019-05-01T15:39:01.103Z,56939.0
2019-05-01T15:40:06.297Z,55734.1
2019-05-01T15:42:01.231Z,54550.9
2019-05-01T15:43:01.084Z,54810.1
2019-05-01T15:44:01.087Z,55509.3
2019-05-01T15:45:01.118Z,56424.5
2019-05-01T15:46:01.090Z,57370.5
2019-05-01T15:47:01.242Z,58033.3
2019-05-01T15:48:01.086Z,58446.7
2019-05-01T15:49:01.114Z,59249.1
2019-05-01T15:50:01.117Z,60535.2
2019-05-01T15:51:01.086Z,61490.5
2019-05-01T15:52:01.242Z,61860.2
2019-05-01T15:53:01.091Z,61370.7
2019-05-01T15:54:01.089Z,61312.6
2019-05-01T15:55:01.123Z,62068.3
2019-05-01T15:56:02.138Z,63273.2
2019-05-01T15:57:01.234Z,64456.5
2019-05-01T15:58:01.089Z,64222.9
2019-05-01T15:59:01.091Z,64100.4
2019-05-01T16:00:01.088Z,64100.4
2019-05-01T16:04:01.233Z,63984.9
2019-05-01T16:05:01.093Z,63539.7
2019-05-01T16:06:01.142Z,62206.9
2019-05-01T16:07:01.238Z,60866.6
2019-05-01T16:08:09.342Z,60299.8
2019-05-01T16:09:01.103Z,59039.1
2019-05-01T16:10:01.097Z,57492.3
2019-05-01T16:11:01.095Z,56057.1
2019-05-01T16:12:01.259Z,54498.0
2019-05-01T16:13:01.095Z,53223.8
2019-05-01T16:14:01.090Z,52336.3
2019-05-01T16:15:01.098Z,51392.8
2019-05-01T16:16:01.093Z,51071.1
2019-05-01T16:17:01.243Z,50160.7
2019-05-01T16:18:01.099Z,48740.8
2019-05-01T16:19:01.096Z,47681.8
2019-05-01T16:20:01.099Z,46456.9
2019-05-01T16:21:06.106Z,45631.5
2019-05-01T16:22:01.241Z,44831.5
2019-05-01T16:23:01.096Z,43867.4
2019-05-01T16:24:01.099Z,43395.9
2019-05-01T16:25:01.101Z,42982.7
2019-05-01T16:26:06.104Z,42284.3
2019-05-01T16:27:01.245Z,41498.9
2019-05-01T16:28:01.097Z,40604.3
2019-05-01T16:29:01.100Z,39403.9
2019-05-01T16:30:01.109Z,38332.3
2019-05-01T16:31:01.130Z,36587.7
2019-05-01T16:32:01.270Z,35687.5
2019-05-01T16:33:01.100Z,35055.9
2019-05-01T16:34:01.101Z,34590.5
2019-05-01T16:35:01.104Z,34348.9
2019-05-01T16:36:01.131Z,34348.3
2019-05-01T16:37:01.249Z,34238.0
2019-05-01T16:38:01.098Z,34044.3
2019-05-01T16:39:01.067Z,33330.4
2019-05-01T16:40:01.101Z,32876.4
2019-05-01T16:41:01.131Z,32664.4
2019-05-01T16:42:01.252Z,32668.9
2019-05-01T16:43:01.099Z,32794.3
2019-05-01T16:44:01.102Z,33053.5
2019-05-01T16:45:01.100Z,33203.3
2019-05-01T16:46:01.132Z,33380.3
2019-05-01T16:47:01.312Z,33118.7
2019-05-01T16:48:01.100Z,33024.5
2019-05-01T16:50:01.086Z,32686.9
2019-05-01T16:51:01.087Z,32217.1
2019-05-01T16:52:01.255Z,31802.6
2019-05-01T16:53:01.089Z,31450.6
2019-05-01T16:54:01.112Z,31161.5
2019-05-01T16:55:01.085Z,31313.5
2019-05-01T16:56:01.090Z,30938.9
2019-05-01T16:57:01.236Z,30602.3
2019-05-01T16:58:01.088Z,30219.8
2019-05-01T16:59:01.101Z,29799.2
2019-05-01T17:00:01.093Z,29077.4
2019-05-01T17:01:01.092Z,28345.5
2019-05-01T17:02:01.236Z,27496.5
2019-05-01T17:03:01.089Z,26822.3
2019-05-01T17:04:01.090Z,26297.9
2019-05-01T17:05:01.110Z,25802.1
2019-05-01T17:06:01.096Z,25342.8
2019-05-01T17:07:01.240Z,25147.9
2019-05-01T17:08:01.096Z,24915.9
2019-05-01T17:09:06.107Z,24594.7
2019-05-01T17:10:06.113Z,24031.6
2019-05-01T17:11:01.096Z,23609.3
2019-05-01T17:12:01.250Z,23094.1
2019-05-01T17:13:01.062Z,22666.5
2019-05-01T17:14:02.153Z,22261.8
2019-05-01T17:15:01.097Z,21719.2
2019-05-01T17:16:01.094Z,21068.7
2019-05-01T17:17:01.219Z,20614.7
2019-05-01T17:18:01.095Z,20044.7
2019-05-01T17:19:01.096Z,19340.0
2019-05-01T17:20:06.100Z,18727.2
2019-05-01T17:21:01.095Z,18163.9
2019-05-01T17:22:01.207Z,17462.3
2019-05-01T17:23:01.095Z,16828.9
2019-05-01T17:24:01.090Z,16356.7
2019-05-01T17:25:06.123Z,15973.5
2019-05-01T17:26:01.094Z,15685.5
2019-05-01T17:27:01.239Z,15436.8
2019-05-01T17:28:02.739Z,15068.6
2019-05-01T17:29:01.096Z,14621.2
2019-05-01T17:30:01.132Z,14298.1
2019-05-01T17:31:01.095Z,13972.9
2019-05-01T17:32:05.034Z,13594.5
2019-05-01T17:33:01.348Z,13293.7
2019-05-01T17:34:01.098Z,13013.3
2019-05-01T17:35:01.787Z,12697.0
2019-05-01T17:36:01.095Z,12412.9
2019-05-01T17:37:01.246Z,12220.7
2019-05-01T17:38:01.099Z,12041.1
2019-05-01T17:39:01.105Z,11832.9
2019-05-01T17:40:01.131Z,11720.1
2019-05-01T17:41:01.096Z,11581.3
2019-05-01T17:42:01.937Z,11376.5
2019-05-01T17:43:01.103Z,11208.1
2019-05-01T17:44:01.100Z,11051.9
2019-05-01T17:45:06.103Z,10824.5
2019-05-01T17:46:01.098Z,10592.9
2019-05-01T17:47:01.244Z,10364.3
2019-05-01T17:48:01.098Z,10117.8
2019-05-01T17:49:04.018Z,9875.5
2019-05-01T17:50:01.129Z,9631.3
2019-05-01T17:51:06.103Z,9399.7
2019-05-01T17:52:01.248Z,9114.1
2019-05-01T17:53:01.100Z,8844.6
2019-05-01T17:54:01.097Z,8504.4
2019-05-01T17:55:02.063Z,8117.1
2019-05-01T17:56:01.096Z,7826.0
2019-05-01T17:57:01.246Z,7574.1
2019-05-01T17:58:01.098Z,7375.9
2019-05-01T17:59:01.099Z,7185.7
2019-05-01T18:00:01.108Z,7053.9
2019-05-01T18:01:01.100Z,6993.2
2019-05-01T18:02:05.142Z,6894.0
2019-05-01T18:04:01.093Z,6807.3
2019-05-01T18:05:01.096Z,6733.2
2019-05-01T18:06:02.891Z,6678.3
2019-05-01T18:07:01.100Z,6587.3
2019-05-01T18:08:01.235Z,6517.2
2019-05-01T18:09:03.059Z,6393.5
2019-05-01T18:10:01.087Z,6270.4
2019-05-01T18:11:01.112Z,6156.3
2019-05-01T18:12:01.086Z,6002.9
2019-05-01T18:13:01.236Z,5824.7
2019-05-01T18:14:01.088Z,5618.9
2019-05-01T18:15:01.894Z,5415.6
2019-05-01T18:16:01.666Z,5210.3
2019-05-01T18:17:01.122Z,4957.0
2019-05-01T18:18:01.235Z,4727.7
2019-05-01T18:19:01.092Z,4554.2
2019-05-01T18:20:01.099Z,4388.5
2019-05-01T18:21:01.083Z,4215.3
2019-05-01T18:22:01.090Z,4067.6
2019-05-01T18:23:01.244Z,3938.3
2019-05-01T18:24:01.093Z,3819.4
2019-05-01T18:25:01.096Z,3722.1
2019-05-01T18:26:04.740Z,3614.9
2019-05-01T18:27:01.092Z,3504.5
2019-05-01T18:28:01.302Z,3381.1
2019-05-01T18:29:05.704Z,3265.9
2019-05-01T18:30:01.102Z,3147.7
2019-05-01T18:31:01.091Z,3032.8
2019-05-01T18:32:02.868Z,2936.5
2019-05-01T18:33:01.591Z,2830.2
2019-05-01T18:34:02.298Z,2724.3
2019-05-01T18:35:01.096Z,2622.4
2019-05-01T18:36:01.097Z,2518.9
2019-05-01T18:37:01.573Z,2423.7
2019-05-01T18:38:06.122Z,2317.3
2019-05-01T18:39:01.092Z,2216.2
2019-05-01T18:40:01.124Z,2115.0
2019-05-01T18:41:01.094Z,2040.1
2019-05-01T18:42:01.092Z,1960.7
2019-05-01T18:43:01.304Z,1891.7
2019-05-01T18:44:05.169Z,1817.9
2019-05-01T18:45:01.120Z,1746.3
2019-05-01T18:46:01.093Z,1669.8